Time;durP1;ratioP1;P1;durP2;ratioP2;P2;SDS_P1;SDS_P2;PMS_P1;PMS_P2;Temp;Humidity;BMP_temperature;BMP_pressure;BME280_temperature;BME280_humidity;BME280_pressure;Samples;Min_cycle;Max_cycle;Signal;HPM_P1;HPM_P2
2022/02/18 00:01:26;;;;;;;0.73;0.73;;;;;;;5.25;76.45;99760.47;5070687;28;20178;-74
2022/02/18 00:03:51;;;;;;;11.13;1.30;;;;;;;5.28;76.39;99763.38;5070543;28;20217;-73
2022/02/18 00:06:17;;;;;;;1.90;1.13;;;;;;;5.35;76.84;99763.84;5069071;28;20178;-74
2022/02/18 00:08:44;;;;;;;3.40;1.10;;;;;;;5.33;77.21;99757.06;5070513;28;20171;-74
2022/02/18 00:11:10;;;;;;;0.37;0.37;;;;;;;5.31;78.28;99765.50;5070443;28;20253;-73
2022/02/18 00:13:35;;;;;;;2.87;0.97;;;;;;;5.29;79.04;99761.47;5071464;28;20285;-74
2022/02/18 00:16:01;;;;;;;2.30;1.47;;;;;;;5.24;79.76;99761.56;5074388;28;20287;-73
2022/02/18 00:18:26;;;;;;;0.83;0.80;;;;;;;5.22;80.16;99764.56;5074470;28;20170;-73
2022/02/18 00:20:52;;;;;;;10.47;1.30;;;;;;;5.17;80.92;99775.44;5074299;28;20186;-74
2022/02/18 00:23:17;;;;;;;9.07;1.93;;;;;;;5.16;80.74;99773.84;5074261;28;20287;-73
2022/02/18 00:25:42;;;;;;;0.70;0.70;;;;;;;5.16;81.15;99775.75;5073871;28;20194;-74
2022/02/18 00:28:08;;;;;;;0.77;0.63;;;;;;;5.16;81.90;99775.75;5074330;28;20260;-74
2022/02/18 00:30:33;;;;;;;0.30;0.20;;;;;;;5.16;81.59;99770.31;5074291;28;20229;-75
2022/02/18 00:32:59;;;;;;;0.60;0.60;;;;;;;5.13;82.50;99774.44;5074311;28;20175;-73
2022/02/18 00:35:25;;;;;;;1.03;0.30;;;;;;;5.17;82.18;99791.69;5074364;28;20232;-73
2022/02/18 00:37:55;;;;;;;0.00;0.00;;;;;;;5.16;82.90;99773.03;5077322;28;20181;-73
2022/02/18 00:40:21;;;;;;;0.20;0.20;;;;;;;5.16;82.91;99776.53;5083784;28;20175;-73
2022/02/18 00:42:47;;;;;;;1.30;1.03;;;;;;;5.19;83.01;99764.31;5080974;28;20255;-73
2022/02/18 00:45:13;;;;;;;0.57;0.20;;;;;;;5.16;83.00;99775.75;5075103;28;20174;-73
2022/02/18 00:47:38;;;;;;;0.57;0.57;;;;;;;5.13;83.02;99773.63;5074190;28;20171;-73
2022/02/18 00:50:04;;;;;;;7.87;0.30;;;;;;;5.12;83.68;99788.25;5073500;28;20182;-73
2022/02/18 00:52:30;;;;;;;5.10;1.73;;;;;;;5.13;83.62;99798.78;5073645;28;20622;-73
2022/02/18 00:54:55;;;;;;;0.50;0.37;;;;;;;5.15;83.76;99785.75;5073648;28;20171;-73
2022/02/18 00:57:21;;;;;;;0.10;0.10;;;;;;;5.17;83.61;99786.28;5073762;28;20178;-73
2022/02/18 00:59:46;;;;;;;1.40;0.60;;;;;;;5.18;84.03;99782.47;5073584;28;20182;-74
2022/02/18 01:02:12;;;;;;;0.97;0.40;;;;;;;5.16;84.26;99775.75;5073550;28;20645;-73
2022/02/18 01:04:38;;;;;;;0.77;0.43;;;;;;;5.19;83.98;99794.91;5073259;28;20571;-74
2022/02/18 01:07:04;;;;;;;0.10;0.10;;;;;;;5.24;84.22;99785.94;5073736;28;20178;-73
2022/02/18 01:09:30;;;;;;;4.03;1.00;;;;;;;5.24;84.20;99797.56;5073379;28;20671;-73
2022/02/18 01:11:55;;;;;;;2.23;0.50;;;;;;;5.26;83.83;99798.06;5073352;28;20258;-73
2022/02/18 01:14:21;;;;;;;2.57;0.40;;;;;;;5.27;83.86;99782.63;5073215;28;20201;-74
2022/02/18 01:16:47;;;;;;;1.47;1.27;;;;;;;5.24;84.06;99802.97;5073166;28;20174;-73
2022/02/18 01:19:12;;;;;;;1.33;0.73;;;;;;;5.21;84.19;99798.16;5073204;28;20542;-74
2022/02/18 01:21:37;;;;;;;0.57;0.37;;;;;;;5.19;84.95;99800.31;5073210;28;20178;-73
2022/02/18 01:24:05;;;;;;;0.50;0.50;;;;;;;5.18;85.45;99812.25;5072944;28;20210;-73
2022/02/18 01:26:32;;;;;;;4.70;1.27;;;;;;;5.16;85.67;99800.91;5071833;28;20186;-73
2022/02/18 01:28:57;;;;;;;2.40;1.50;;;;;;;5.17;85.83;99812.53;5072808;28;20179;-73
2022/02/18 01:31:25;;;;;;;1.20;1.10;;;;;;;5.17;86.14;99809.84;5072948;28;20192;-73
2022/02/18 01:33:52;;;;;;;7.13;2.70;;;;;;;5.17;86.27;99818.78;5072881;28;20198;-73
2022/02/18 01:36:18;;;;;;;4.20;1.60;;;;;;;5.17;86.72;99807.13;5072699;28;20168;-74
2022/02/18 01:38:43;;;;;;;1.57;0.60;;;;;;;5.17;86.44;99799.81;5072757;28;20205;-74
2022/02/18 01:41:11;;;;;;;0.77;0.77;;;;;;;5.15;86.38;99799.31;5073084;28;20669;-73
2022/02/18 01:43:37;;;;;;;0.37;0.37;;;;;;;5.16;86.18;99808.22;5073034;28;20683;-73
2022/02/18 01:46:04;;;;;;;2.57;0.33;;;;;;;5.16;86.59;99794.69;5072571;28;20173;-74
2022/02/18 01:48:29;;;;;;;5.07;0.60;;;;;;;5.20;86.21;99811.97;5072755;28;20228;-73
2022/02/18 01:50:58;;;;;;;9.13;2.60;;;;;;;5.22;85.98;99801.66;5072903;28;20174;-73
2022/02/18 01:53:23;;;;;;;2.93;1.83;;;;;;;5.24;85.98;99796.75;5072565;28;20175;-73
2022/02/18 01:55:49;;;;;;;1.50;0.93;;;;;;;5.24;85.99;99797.56;5072393;28;20899;-73
2022/02/18 01:58:14;;;;;;;2.13;1.47;;;;;;;5.25;86.34;99792.94;5072550;28;20179;-73
2022/02/18 02:00:39;;;;;;;0.70;0.50;;;;;;;5.25;86.30;99791.06;5072480;28;20673;-73
2022/02/18 02:03:07;;;;;;;0.53;0.53;;;;;;;5.24;86.25;99783.22;5072331;28;20565;-73
2022/02/18 02:05:32;;;;;;;11.13;1.67;;;;;;;5.24;86.62;99786.72;5072140;28;20179;-74
2022/02/18 02:07:59;;;;;;;1.50;0.80;;;;;;;5.24;86.66;99775.09;5072264;28;20652;-73
2022/02/18 02:10:24;;;;;;;0.77;0.77;;;;;;;5.20;86.74;99766.72;5072183;28;20560;-73
2022/02/18 02:12:52;;;;;;;1.63;1.57;;;;;;;5.20;87.03;99777.56;5070734;28;20182;-71
2022/02/18 02:15:24;;;;;;;0.33;0.33;;;;;;;5.18;87.08;99763.50;5071856;28;20648;-73
2022/02/18 02:17:50;;;;;;;0.83;0.30;;;;;;;5.17;87.40;99770.03;5071910;28;20186;-74
2022/02/18 02:20:17;;;;;;;3.20;1.00;;;;;;;5.15;87.51;99771.41;5071938;28;20575;-73
2022/02/18 02:22:42;;;;;;;0.87;0.87;;;;;;;5.11;87.66;99763.09;5071888;28;20247;-73
2022/02/18 02:25:08;;;;;;;0.90;0.73;;;;;;;5.13;87.86;99768.22;5071544;28;20179;-74
2022/02/18 02:27:34;;;;;;;1.80;0.37;;;;;;;5.07;88.15;99779.13;5071663;28;20269;-73
2022/02/18 02:30:00;;;;;;;0.30;0.20;;;;;;;5.06;88.77;99763.97;5071709;28;20170;-73
2022/02/18 02:32:25;;;;;;;0.40;0.40;;;;;;;5.07;88.55;99770.19;5071710;28;20257;-73
2022/02/18 02:34:52;;;;;;;3.30;1.27;;;;;;;5.06;88.92;99773.97;5071475;28;20204;-74
2022/02/18 02:37:17;;;;;;;2.63;0.30;;;;;;;5.03;89.06;99763.72;5071607;28;20216;-73
2022/02/18 02:39:43;;;;;;;0.93;0.60;;;;;;;5.01;89.36;99764.03;5071486;28;20820;-73
2022/02/18 02:42:09;;;;;;;1.37;0.93;;;;;;;5.03;89.66;99759.13;5071475;28;20194;-73
2022/02/18 02:44:35;;;;;;;1.00;0.97;;;;;;;5.07;89.55;99767.47;5071482;28;20616;-73
2022/02/18 02:47:01;;;;;;;0.43;0.37;;;;;;;5.06;89.71;99750.44;5071382;28;20186;-73
2022/02/18 02:49:26;;;;;;;2.57;0.30;;;;;;;5.11;89.68;99752.25;5071541;28;20175;-73
2022/02/18 02:51:52;;;;;;;0.50;0.07;;;;;;;5.15;89.68;99766.00;5071713;28;20174;-74
2022/02/18 02:54:18;;;;;;;0.30;0.30;;;;;;;5.20;89.53;99755.91;5071184;28;20185;-73
2022/02/18 02:56:43;;;;;;;1.77;0.70;;;;;;;5.23;89.37;99752.63;5071117;28;20243;-73
2022/02/18 02:59:09;;;;;;;0.17;0.10;;;;;;;5.25;89.33;99749.63;5071259;28;20171;-74
2022/02/18 03:01:34;;;;;;;4.67;0.70;;;;;;;5.25;89.39;99755.03;5069789;28;20264;-73
2022/02/18 03:03:59;;;;;;;1.07;0.73;;;;;;;5.26;89.37;99760.16;5071125;28;20210;-73
2022/02/18 03:06:25;;;;;;;0.20;0.20;;;;;;;5.28;89.37;99744.41;5070966;28;20200;-73
2022/02/18 03:08:50;;;;;;;0.10;0.10;;;;;;;5.25;89.67;99742.31;5070981;28;20179;-73
2022/02/18 03:11:16;;;;;;;3.63;1.00;;;;;;;5.25;89.96;99742.31;5071039;28;20548;-71
2022/02/18 03:13:46;;;;;;;19.93;1.30;;;;;;;5.22;89.97;99745.59;5071044;28;20196;-71
2022/02/18 03:16:13;;;;;;;1.50;1.23;;;;;;;5.24;90.21;99748.81;5070796;28;20170;-71
2022/02/18 03:18:38;;;;;;;1.87;0.67;;;;;;;5.25;90.75;99746.91;5070852;28;20183;-72
2022/02/18 03:21:04;;;;;;;2.00;1.63;;;;;;;5.21;91.27;99746.72;5071388;28;20186;-72
2022/02/18 03:23:30;;;;;;;0.53;0.47;;;;;;;5.17;91.58;99747.56;5070750;28;20202;-71
2022/02/18 03:25:55;;;;;;;0.93;0.93;;;;;;;5.18;91.65;99760.81;5070560;28;20251;-74
2022/02/18 03:28:20;;;;;;;9.10;0.77;;;;;;;5.18;91.98;99760.00;5070423;28;20614;-73
2022/02/18 03:30:46;;;;;;;8.63;1.40;;;;;;;5.19;92.47;99764.31;5071120;28;20179;-73
2022/02/18 03:33:11;;;;;;;1.03;0.73;;;;;;;5.22;92.94;99777.28;5070608;28;20189;-73
2022/02/18 03:35:38;;;;;;;1.07;0.93;;;;;;;5.27;92.58;99778.03;5070436;28;20592;-74
2022/02/18 03:38:04;;;;;;;0.23;0.23;;;;;;;5.29;92.64;99777.72;5070678;28;20592;-73
2022/02/18 03:40:30;;;;;;;0.97;0.97;;;;;;;5.27;92.95;99767.19;5070642;28;20170;-73
2022/02/18 03:42:55;;;;;;;4.43;0.50;;;;;;;5.25;92.70;99769.38;5070582;28;20556;-73
2022/02/18 03:45:21;;;;;;;0.90;0.90;;;;;;;5.26;93.25;99776.41;5070488;28;20247;-72
2022/02/18 03:47:46;;;;;;;2.57;0.73;;;;;;;5.25;93.66;99717.13;5070940;28;20171;-73
2022/02/18 03:50:11;;;;;;;0.50;0.50;;;;;;;5.19;94.18;99772.44;5076900;28;20210;-74
2022/02/18 03:52:37;;;;;;;1.03;0.93;;;;;;;5.19;94.25;99761.59;5077029;28;20197;-73
2022/02/18 03:55:02;;;;;;;0.70;0.37;;;;;;;5.15;95.00;99763.31;5076959;28;20564;-73
2022/02/18 03:57:28;;;;;;;2.40;1.63;;;;;;;5.17;95.50;99752.97;5077245;28;20627;-74
2022/02/18 03:59:53;;;;;;;2.03;0.83;;;;;;;5.17;96.16;99759.19;5077109;28;20170;-73
2022/02/18 04:02:18;;;;;;;1.73;1.40;;;;;;;5.19;96.26;99758.91;5077161;28;20678;-74
2022/02/18 04:04:44;;;;;;;1.73;1.63;;;;;;;5.17;96.53;99751.06;5075742;28;20839;-74
2022/02/18 04:07:11;;;;;;;11.77;2.23;;;;;;;5.13;96.69;99741.94;5077201;28;20205;-74
2022/02/18 04:09:37;;;;;;;7.00;1.77;;;;;;;5.14;97.07;99734.63;5077037;28;20162;-73
2022/02/18 04:12:03;;;;;;;3.20;1.47;;;;;;;5.16;97.13;99740.53;5076934;28;20166;-73
2022/02/18 04:14:28;;;;;;;1.80;1.63;;;;;;;5.19;97.52;99750.78;5076929;28;20170;-73
2022/02/18 04:16:53;;;;;;;0.73;0.73;;;;;;;5.16;97.35;99746.75;5076737;28;20585;-73
2022/02/18 04:19:19;;;;;;;0.70;0.70;;;;;;;5.19;98.18;99737.25;5076784;28;20170;-73
2022/02/18 04:21:44;;;;;;;1.93;1.53;;;;;;;5.22;98.13;99664.38;5077334;28;20178;-73
2022/02/18 04:24:09;;;;;;;2.03;1.83;;;;;;;5.20;97.90;99742.38;5076889;28;20215;-74
2022/02/18 04:26:35;;;;;;;5.60;1.80;;;;;;;5.20;98.12;99736.13;5076490;28;20702;-73
2022/02/18 04:29:00;;;;;;;1.67;1.50;;;;;;;5.22;97.96;99732.06;5076563;28;20167;-73
2022/02/18 04:31:25;;;;;;;1.30;1.20;;;;;;;5.24;98.16;99743.41;5076911;28;20537;-74
2022/02/18 04:33:51;;;;;;;1.70;1.50;;;;;;;5.30;97.84;99742.22;5077160;28;20173;-74
2022/02/18 04:36:17;;;;;;;5.37;1.40;;;;;;;5.28;97.74;99730.06;5075426;28;20292;-74
2022/02/18 04:38:43;;;;;;;3.90;2.93;;;;;;;5.27;97.63;99731.97;5077160;28;20373;-74
2022/02/18 04:41:08;;;;;;;4.77;3.03;;;;;;;5.26;97.94;99735.78;5076699;28;20254;-74
2022/02/18 04:43:34;;;;;;;3.17;1.67;;;;;;;5.27;98.26;99731.97;5076566;28;20210;-74
2022/02/18 04:45:59;;;;;;;1.47;1.37;;;;;;;5.31;97.81;99732.19;5076390;28;20213;-75
2022/02/18 04:48:25;;;;;;;2.20;1.87;;;;;;;5.33;97.60;99733.50;5076685;28;20174;-76
2022/02/18 04:50:50;;;;;;;2.33;2.07;;;;;;;5.34;97.35;99731.59;5076577;28;20177;-74
2022/02/18 04:53:15;;;;;;;1.77;1.63;;;;;;;5.36;97.20;99732.94;5075354;28;20733;-74
2022/02/18 04:55:42;;;;;;;1.83;1.57;;;;;;;5.36;97.14;99732.94;5075099;28;20175;-73
2022/02/18 04:58:07;;;;;;;1.20;0.90;;;;;;;5.40;96.56;99719.59;5076522;28;20183;-75
2022/02/18 05:00:33;;;;;;;2.07;1.40;;;;;;;5.40;96.42;99718.81;5073283;28;20182;-73
2022/02/18 05:02:58;;;;;;;5.17;2.30;;;;;;;5.40;96.01;99694.41;5073291;28;20289;-74
2022/02/18 05:05:24;;;;;;;1.87;1.77;;;;;;;5.40;96.46;99727.72;5073029;28;20178;-73
2022/02/18 05:07:49;;;;;;;1.17;1.17;;;;;;;5.37;96.37;99701.25;5073191;28;20179;-74
2022/02/18 05:10:14;;;;;;;3.53;2.27;;;;;;;5.38;96.66;99694.72;5071889;28;20179;-74
2022/02/18 05:12:40;;;;;;;7.20;4.70;;;;;;;5.36;96.80;99692.31;5073252;28;20175;-74
2022/02/18 05:15:06;;;;;;;37.27;4.17;;;;;;;5.38;96.41;99695.53;5072925;28;20175;-73
2022/02/18 05:17:31;;;;;;;4.93;1.37;;;;;;;5.38;96.24;99710.97;5073141;28;20281;-73
2022/02/18 05:19:58;;;;;;;1.00;1.00;;;;;;;5.41;96.37;99712.28;5073072;28;20252;-74
2022/02/18 05:22:23;;;;;;;0.60;0.60;;;;;;;5.40;96.75;99703.34;5072993;28;20185;-74
2022/02/18 05:24:49;;;;;;;2.20;1.80;;;;;;;5.40;96.38;99697.13;5072870;28;20674;-73
2022/02/18 05:27:15;;;;;;;1.23;1.13;;;;;;;5.38;96.71;99687.41;5072448;28;20616;-74
2022/02/18 05:29:40;;;;;;;6.70;1.80;;;;;;;5.41;96.84;99690.63;5072923;28;20220;-74
2022/02/18 05:32:06;;;;;;;1.20;0.93;;;;;;;5.41;97.13;99677.88;5071560;28;20189;-73
2022/02/18 05:34:31;;;;;;;6.00;1.73;;;;;;;5.42;96.96;99678.69;5072707;28;20214;-73
2022/02/18 05:36:57;;;;;;;4.13;2.10;;;;;;;5.39;97.22;99685.50;5072709;28;20206;-74
2022/02/18 05:39:22;;;;;;;5.30;0.90;;;;;;;5.38;97.67;99681.97;5072768;28;20261;-74
2022/02/18 05:41:48;;;;;;;4.43;3.43;;;;;;;5.41;97.58;99682.47;5072498;28;20588;-73
2022/02/18 05:44:13;;;;;;;11.50;3.20;;;;;;;5.42;97.50;99668.66;5072513;28;20320;-73
2022/02/18 05:46:38;;;;;;;3.60;2.70;;;;;;;5.45;97.14;99667.25;5072415;28;20201;-73
2022/02/18 05:49:04;;;;;;;9.50;4.23;;;;;;;5.44;97.50;99666.44;5072551;28;20175;-73
2022/02/18 05:51:29;;;;;;;12.67;3.37;;;;;;;5.49;96.52;99662.84;5072432;28;20639;-73
2022/02/18 05:53:54;;;;;;;9.17;4.80;;;;;;;5.47;96.30;99656.91;5072720;28;20175;-74
2022/02/18 05:56:20;;;;;;;2.27;2.07;;;;;;;5.48;96.22;99655.81;5072351;28;20180;-73
2022/02/18 05:58:46;;;;;;;3.37;3.07;;;;;;;5.48;96.05;99644.97;5072173;28;20435;-73
2022/02/18 06:01:11;;;;;;;2.03;1.83;;;;;;;5.48;95.76;99647.69;5072249;28;20171;-73
2022/02/18 06:03:37;;;;;;;0.87;0.80;;;;;;;5.53;95.41;99643.00;5072287;28;20268;-74
2022/02/18 06:06:03;;;;;;;1.93;1.43;;;;;;;5.57;94.79;99633.16;5070692;28;20193;-74
2022/02/18 06:08:28;;;;;;;2.73;2.50;;;;;;;5.64;94.22;99633.59;5071968;28;20178;-75
2022/02/18 06:10:53;;;;;;;2.73;2.03;;;;;;;5.66;93.89;99636.81;5071854;28;20183;-74
2022/02/18 06:13:19;;;;;;;1.67;1.57;;;;;;;5.70;93.93;99565.75;5071906;28;20179;-71
2022/02/18 06:15:45;;;;;;;5.03;4.50;;;;;;;5.69;93.71;99621.84;5071872;28;20174;-72
2022/02/18 06:18:11;;;;;;;1.23;1.13;;;;;;;5.72;93.30;99617.72;5071976;28;20205;-72
2022/02/18 06:20:36;;;;;;;5.83;4.17;;;;;;;5.70;93.40;99609.91;5071942;28;20174;-72
2022/02/18 06:23:04;;;;;;;12.13;5.13;;;;;;;5.73;93.00;99605.78;5071625;28;20537;-71
2022/02/18 06:25:29;;;;;;;10.03;5.13;;;;;;;5.75;92.85;99603.56;5071447;28;20190;-71
2022/02/18 06:28:06;;;;;;;7.70;3.57;;;;;;;5.78;92.44;99589.41;5071350;28;20224;-72
2022/02/18 06:30:31;;;;;;;6.80;4.63;;;;;;;5.80;92.07;99587.25;5071611;28;20235;-74
2022/02/18 06:32:58;;;;;;;7.43;3.17;;;;;;;5.80;92.13;99582.63;5070169;28;20174;-74
2022/02/18 06:35:23;;;;;;;6.13;5.13;;;;;;;5.81;91.72;99595.06;5071546;28;20171;-73
2022/02/18 06:37:48;;;;;;;13.03;5.53;;;;;;;5.85;91.83;99598.78;5071390;28;20523;-73
2022/02/18 06:40:14;;;;;;;3.47;3.17;;;;;;;5.88;91.55;99606.28;5071489;28;20271;-73
2022/02/18 06:42:41;;;;;;;8.13;5.63;;;;;;;5.91;91.03;99597.59;5071446;28;20178;-74
2022/02/18 06:45:07;;;;;;;8.17;3.93;;;;;;;5.92;91.34;99590.25;5071079;28;20174;-73
2022/02/18 06:47:32;;;;;;;1.97;1.83;;;;;;;5.94;91.04;99590.78;5071355;28;20198;-73
2022/02/18 06:49:57;;;;;;;5.77;3.53;;;;;;;5.92;91.25;99582.94;5071149;28;20177;-75
2022/02/18 06:52:23;;;;;;;5.53;4.73;;;;;;;5.92;91.71;99577.50;5071248;28;20167;-72
2022/02/18 06:54:48;;;;;;;8.93;5.03;;;;;;;5.93;91.65;99575.59;5069602;28;20178;-72
2022/02/18 06:57:14;;;;;;;5.60;5.20;;;;;;;5.90;92.09;99573.50;5071101;28;20179;-72
2022/02/18 06:59:39;;;;;;;7.10;4.87;;;;;;;5.85;93.53;99560.03;5069913;28;20177;-72
2022/02/18 07:02:04;;;;;;;9.57;5.43;;;;;;;5.92;93.72;99563.94;5071068;28;20692;-72
2022/02/18 07:04:30;;;;;;;7.00;4.80;;;;;;;5.92;94.56;99563.94;5070781;28;20201;-72
2022/02/18 07:06:56;;;;;;;3.87;2.13;;;;;;;5.91;95.33;99561.53;5070825;28;20550;-73
2022/02/18 07:09:21;;;;;;;3.30;3.10;;;;;;;5.86;96.01;99551.59;5071157;28;20258;-74
2022/02/18 07:11:47;;;;;;;7.27;2.47;;;;;;;5.83;97.16;99549.50;5070857;28;20258;-72
2022/02/18 07:14:12;;;;;;;7.07;4.67;;;;;;;5.81;97.62;99540.84;5070896;28;20664;-71
2022/02/18 07:16:42;;;;;;;6.57;4.30;;;;;;;5.81;98.02;99546.28;5071027;28;20170;-72
2022/02/18 07:19:12;;;;;;;4.83;4.17;;;;;;;5.79;98.74;99537.66;5070736;28;20626;-72
2022/02/18 07:21:38;;;;;;;8.93;3.63;;;;;;;5.83;98.46;99543.25;5070730;28;20245;-72
2022/02/18 07:24:08;;;;;;;8.90;3.40;;;;;;;5.84;98.40;99531.31;5069988;28;20300;-72
2022/02/18 07:26:33;;;;;;;8.93;3.17;;;;;;;5.82;98.51;99499.09;5070441;28;20182;-72
2022/02/18 07:28:59;;;;;;;7.90;3.43;;;;;;;5.79;98.35;99504.31;5070398;28;20253;-72
2022/02/18 07:31:24;;;;;;;6.30;3.87;;;;;;;5.85;98.53;99490.34;5070560;28;20487;-71
2022/02/18 07:33:49;;;;;;;6.33;3.20;;;;;;;5.78;98.28;99460.13;5070592;28;20751;-72
2022/02/18 07:36:15;;;;;;;5.57;2.97;;;;;;;5.84;98.39;99453.50;5070869;28;20224;-72
2022/02/18 07:38:40;;;;;;;9.00;3.03;;;;;;;5.79;98.58;99440.09;5078115;28;20657;-71
2022/02/18 07:41:05;;;;;;;8.37;2.67;;;;;;;5.80;98.53;99428.13;5073667;28;20202;-71
2022/02/18 07:43:31;;;;;;;3.53;2.30;;;;;;;5.89;98.65;99414.66;5071485;28;20202;-71
2022/02/18 07:45:58;;;;;;;6.63;5.17;;;;;;;5.90;98.54;99397.31;5071233;28;20262;-72
2022/02/18 07:48:24;;;;;;;6.03;4.03;;;;;;;5.93;98.80;99402.09;5070899;28;20182;-72
2022/02/18 07:50:49;;;;;;;4.20;2.60;;;;;;;5.96;98.19;99407.75;5071076;28;20186;-71
2022/02/18 07:53:15;;;;;;;8.60;3.77;;;;;;;6.01;97.97;99404.09;5070365;28;20170;-71
2022/02/18 07:55:40;;;;;;;5.10;3.00;;;;;;;5.98;97.74;99396.59;5070655;28;20666;-72
2022/02/18 07:58:05;;;;;;;7.00;3.13;;;;;;;5.94;97.46;99382.06;5070398;28;20179;-73
2022/02/18 08:00:32;;;;;;;3.90;3.30;;;;;;;5.93;97.23;99356.03;5070132;28;20174;-74
2022/02/18 08:02:58;;;;;;;4.43;3.63;;;;;;;6.02;97.57;99356.09;5070486;28;20217;-71
2022/02/18 08:05:23;;;;;;;8.77;4.60;;;;;;;5.97;97.68;99359.75;5070341;28;20662;-72
2022/02/18 08:07:49;;;;;;;5.23;2.83;;;;;;;6.00;97.64;99359.13;5070158;28;20544;-72
2022/02/18 08:10:14;;;;;;;6.87;2.77;;;;;;;5.96;97.43;99326.41;5070049;28;20254;-72
2022/02/18 08:12:40;;;;;;;6.67;2.77;;;;;;;5.88;97.40;99293.78;5070124;28;20634;-72
2022/02/18 08:15:05;;;;;;;8.43;3.57;;;;;;;6.02;97.29;99301.88;5069757;28;20773;-72
2022/02/18 08:17:35;;;;;;;6.80;2.70;;;;;;;6.10;96.92;99303.84;5070098;28;20170;-72
2022/02/18 08:20:02;;;;;;;7.47;2.90;;;;;;;6.09;96.81;99278.66;5068770;28;20206;-72
2022/02/18 08:22:27;;;;;;;6.30;2.70;;;;;;;6.13;96.50;99270.69;5070018;28;20175;-72
2022/02/18 08:24:54;;;;;;;3.53;1.93;;;;;;;6.14;96.29;99267.66;5069685;28;20211;-72
2022/02/18 08:27:19;;;;;;;6.63;3.90;;;;;;;5.94;95.93;99239.19;5069793;28;20239;-72
2022/02/18 08:29:45;;;;;;;7.43;5.77;;;;;;;5.97;96.17;99237.75;5070300;28;20265;-72
2022/02/18 08:32:10;;;;;;;7.83;3.90;;;;;;;6.05;95.52;99223.44;5070048;28;20178;-72
2022/02/18 08:34:35;;;;;;;5.33;3.03;;;;;;;6.10;94.51;99246.91;5070902;28;20221;-72
2022/02/18 08:37:01;;;;;;;6.90;2.93;;;;;;;6.03;94.47;99250.06;5073705;28;20191;-74
2022/02/18 08:39:27;;;;;;;5.57;3.20;;;;;;;6.07;94.42;99258.34;5073588;28;20174;-74
2022/02/18 08:41:52;;;;;;;3.90;0.80;;;;;;;6.09;94.12;99259.69;5073938;28;20178;-74
2022/02/18 08:44:19;;;;;;;4.33;2.40;;;;;;;6.10;92.78;99250.44;5130324;22;20224;-72
2022/02/18 08:46:44;;;;;;;0.40;0.27;;;;;;;6.15;92.22;99235.94;5041846;28;20626;-71
2022/02/18 08:49:10;;;;;;;3.97;1.87;;;;;;;6.14;91.64;99221.56;5037468;28;20178;-72
2022/02/18 08:51:37;;;;;;;2.93;1.90;;;;;;;6.17;92.25;99215.50;5032041;28;20238;-71
2022/02/18 08:54:03;;;;;;;1.70;1.17;;;;;;;6.26;91.51;99218.28;5033277;28;20184;-72
2022/02/18 08:56:29;;;;;;;2.00;1.20;;;;;;;6.32;90.11;99213.50;5033069;28;20322;-73
2022/02/18 08:58:55;;;;;;;2.47;1.27;;;;;;;6.46;88.30;99214.19;5034273;28;20179;-73
2022/02/18 09:01:21;;;;;;;4.40;1.73;;;;;;;6.46;87.45;99197.91;5040736;28;20179;-72
2022/02/18 09:03:46;;;;;;;2.53;0.77;;;;;;;6.55;86.60;99204.19;5039782;28;20265;-73
2022/02/18 09:06:11;;;;;;;4.80;1.30;;;;;;;6.58;85.76;99173.69;5053034;28;20194;-72
2022/02/18 09:08:37;;;;;;;2.63;1.00;;;;;;;6.60;85.69;99166.03;5053396;28;20198;-74
2022/02/18 09:11:02;;;;;;;5.30;1.23;;;;;;;6.66;85.87;99183.78;5053159;28;20181;-73
2022/02/18 09:13:27;;;;;;;11.97;1.33;;;;;;;6.60;85.54;99176.88;5053138;28;20206;-73
2022/02/18 09:15:53;;;;;;;4.93;2.43;;;;;;;6.71;85.34;99158.41;5051483;28;20207;-74
2022/02/18 09:18:19;;;;;;;4.17;0.40;;;;;;;6.74;85.12;99169.41;5053630;28;20529;-72
2022/02/18 09:20:47;;;;;;;4.87;1.77;;;;;;;6.75;85.54;99153.91;5053266;28;20201;-73
2022/02/18 09:23:13;;;;;;;4.80;1.40;;;;;;;6.74;85.55;99139.56;5053169;28;20191;-72
2022/02/18 09:25:40;;;;;;;2.43;1.43;;;;;;;6.74;85.75;99139.56;5052881;28;20229;-73
2022/02/18 09:28:06;;;;;;;2.57;0.90;;;;;;;6.74;85.99;99134.13;5053162;28;20176;-72
2022/02/18 09:30:33;;;;;;;0.13;0.07;;;;;;;6.76;85.88;99114.81;5053137;28;20233;-73
2022/02/18 09:32:59;;;;;;;2.57;1.60;;;;;;;6.74;86.27;99114.31;5068802;28;20545;-72
2022/02/18 09:35:26;;;;;;;2.73;1.20;;;;;;;6.74;87.64;99100.75;5046968;28;20179;-74
2022/02/18 09:37:53;;;;;;;4.77;1.27;;;;;;;6.78;86.91;99090.84;5041470;28;20180;-72
2022/02/18 09:40:19;;;;;;;1.20;1.00;;;;;;;6.79;87.95;99076.97;5052892;28;20171;-71
2022/02/18 09:42:46;;;;;;;0.50;0.50;;;;;;;6.85;86.95;99075.69;5046184;28;20184;-72
2022/02/18 09:45:12;;;;;;;3.37;1.30;;;;;;;6.84;87.21;99068.66;5032670;28;20218;-72
2022/02/18 09:47:40;;;;;;;6.60;1.10;;;;;;;6.86;88.48;99063.72;5031948;28;20172;-71
2022/02/18 09:50:06;;;;;;;1.80;0.60;;;;;;;6.86;88.55;99052.06;5032674;28;20630;-72
2022/02/18 09:52:32;;;;;;;3.87;1.33;;;;;;;6.78;89.40;99047.44;5035282;28;20219;-71
2022/02/18 09:54:57;;;;;;;2.87;1.40;;;;;;;6.76;90.59;99030.66;5038859;28;20215;-72
2022/02/18 09:57:25;;;;;;;8.50;1.40;;;;;;;6.82;90.97;99021.25;5032315;28;20175;-72
2022/02/18 09:59:51;;;;;;;5.33;1.10;;;;;;;6.70;92.34;99021.09;5032482;28;20211;-72
2022/02/18 10:02:17;;;;;;;4.13;1.00;;;;;;;6.73;93.35;99007.69;5047275;28;20274;-70
2022/02/18 10:04:42;;;;;;;1.13;0.43;;;;;;;6.74;94.05;99000.34;5052305;28;20210;-71
2022/02/18 10:07:07;;;;;;;5.13;1.47;;;;;;;6.50;96.68;98977.19;5036232;28;20188;-70
2022/02/18 10:09:44;;;;;;;7.50;1.67;;;;;;;6.53;98.53;98982.00;5032134;28;20176;-71
2022/02/18 10:12:12;;;;;;;4.10;1.00;;;;;;;6.53;99.33;98964.94;5032085;28;20558;-71
2022/02/18 10:14:57;;;;;;;4.03;0.93;;;;;;;6.60;100.00;98959.00;5030625;28;20184;-70
2022/02/18 10:17:24;;;;;;;2.00;0.97;;;;;;;6.51;100.00;98962.53;5031860;28;20195;-71
2022/02/18 10:19:51;;;;;;;0.83;0.83;;;;;;;6.44;100.00;98934.28;5032160;28;20581;-71
2022/02/18 10:22:28;;;;;;;3.07;1.33;;;;;;;6.41;100.00;98935.75;5031829;28;20180;-71
2022/02/18 10:24:55;;;;;;;5.73;1.73;;;;;;;6.41;100.00;98924.09;5031730;28;20288;-70
2022/02/18 10:27:22;;;;;;;4.37;1.30;;;;;;;6.30;100.00;98906.56;5032096;28;20187;-70
2022/02/18 10:29:59;;;;;;;5.73;1.40;;;;;;;6.33;100.00;98900.47;5032023;28;20176;-70
2022/02/18 10:32:25;;;;;;;4.37;1.80;;;;;;;6.30;100.00;98874.81;5031999;28;20247;-70
2022/02/18 10:35:00;;;;;;;4.77;1.20;;;;;;;6.35;100.00;98880.03;5046968;28;20247;-70
2022/02/18 10:37:27;;;;;;;0.60;0.60;;;;;;;6.41;100.00;98880.69;5032239;28;20175;-73
2022/02/18 10:40:11;;;;;;;0.80;0.57;;;;;;;6.38;100.00;98865.06;5031955;28;20191;-72
2022/02/18 10:42:38;;;;;;;6.77;1.73;;;;;;;6.35;100.00;98835.84;5031760;28;20669;-72
2022/02/18 10:45:10;;;;;;;0.97;0.97;;;;;;;6.45;100.00;98854.50;5031349;28;20219;-73
2022/02/18 10:47:35;;;;;;;2.80;1.60;;;;;;;6.44;100.00;98845.56;5031436;28;20536;-74
2022/02/18 10:50:12;;;;;;;3.50;1.13;;;;;;;6.46;100.00;98828.97;5030216;28;20180;-73
2022/02/18 10:52:37;;;;;;;0.80;0.80;;;;;;;6.54;100.00;98826.25;5046951;28;20175;-73
2022/02/18 10:55:07;;;;;;;0.90;0.57;;;;;;;6.59;100.00;98813.63;5031298;28;20323;-73
2022/02/18 10:57:32;;;;;;;5.27;1.50;;;;;;;6.59;100.00;98806.25;5031087;28;20255;-72
2022/02/18 11:00:12;;;;;;;2.83;1.60;;;;;;;6.67;100.00;98813.59;5030975;28;20271;-76
2022/02/18 11:02:50;;;;;;;2.33;2.13;;;;;;;6.74;100.00;98800.28;5031596;28;20172;-73
2022/02/18 11:05:19;;;;;;;3.73;1.00;;;;;;;6.76;100.00;98787.19;5046839;28;20270;-72
2022/02/18 11:07:45;;;;;;;2.73;1.07;;;;;;;6.80;100.00;98782.72;5031329;28;20176;-72
2022/02/18 11:10:28;;;;;;;4.30;1.20;;;;;;;6.90;100.00;98759.03;5031592;28;20172;-72
2022/02/18 11:12:56;;;;;;;5.40;1.27;;;;;;;6.94;100.00;98749.88;5031277;28;20639;-72
2022/02/18 11:15:22;;;;;;;3.67;1.40;;;;;;;6.98;100.00;98745.41;5030923;28;20175;-74
2022/02/18 11:17:51;;;;;;;4.33;0.77;;;;;;;7.07;100.00;98720.91;5031133;28;20275;-72
2022/02/18 11:20:17;;;;;;;10.33;1.80;;;;;;;7.10;100.00;98725.69;5031122;28;20656;-72
2022/02/18 11:22:44;;;;;;;0.80;0.27;;;;;;;7.19;100.00;98720.19;5029730;28;20662;-72
2022/02/18 11:25:11;;;;;;;3.43;0.67;;;;;;;7.21;100.00;98712.50;5030870;28;20631;-73
2022/02/18 11:27:37;;;;;;;1.67;0.93;;;;;;;7.27;100.00;98697.59;5031367;28;20176;-71
2022/02/18 11:30:02;;;;;;;1.60;0.50;;;;;;;7.32;100.00;98672.94;5031042;28;20682;-76
2022/02/18 11:32:36;;;;;;;5.73;1.53;;;;;;;7.35;100.00;98685.84;5031088;28;20188;-72
2022/02/18 11:35:39;;;;;;;1.23;0.57;;;;;;;7.39;100.00;98652.28;5031110;28;20168;-73
2022/02/18 11:38:18;;;;;;;1.00;0.90;;;;;;;7.53;100.00;98664.78;5030791;28;20187;-71